Home > Products > Valid Products > TAF

000
FTUS46 KMFR 240500
TAFOTH
TAF
KOTH 240538Z 2406/2506 20017G28KT 5SM -RA BR OVC010
     FM241400 21013G22KT P6SM -SHRA OVC015
     FM241900 23011KT P6SM -SHRA BKN020
     FM242300 22006KT P6SM SCT020 BKN040=



000
FTUS46 KMFR 240500
TAFMFR
TAF
KMFR 240538Z 2406/2506 VRB06KT P6SM -SHRA SCT040 OVC060
     FM241100 25007KT P6SM -RA SCT025 OVC040
     FM241700 29011KT P6SM -SHRA SCT030 OVC050
     FM250200 31007KT P6SM -RA SCT015 OVC025=



000
FTUS46 KMFR 240500
TAFLMT
TAF
KLMT 240538Z 2406/2506 21009KT P6SM -SHRA SCT035 OVC040
     FM241000 20011G19KT P6SM -SHRA SCT025 OVC050
     FM241500 23016G25KT P6SM VCSH BKN035 OVC060
     FM241900 25024G33KT P6SM SCT030 BKN070
     FM250200 27009KT P6SM -SHRA SCT020 OVC035=



000
FTUS46 KMFR 240500
TAFRBG
TAF
KRBG 240538Z 2406/2506 17004KT P6SM -RA SCT020 OVC040
     FM240800 17008KT P6SM -RA OVC030
     FM241200 18003KT 5SM -RA BR OVC020
     FM241800 23008KT P6SM -SHRA SCT020 BKN035
     FM250200 33004KT P6SM -SHRA BKN025=



000
FTUS46 KMFR 240300 AAB
TAFOTH
TAF AMD
KOTH 240316Z 2403/2424 19012G20KT 2SM -RA BR BKN012 OVC030
     FM240900 22015G25KT P6SM -SHRA OVC015
     FM241700 24008KT P6SM -SHRA BKN020=



000
FTUS46 KMFR 240100 AAA
TAFOTH
TAF AMD
KOTH 240102Z 2401/2424 19012G20KT P6SM -RA BKN015 OVC030
     FM240900 22015G25KT P6SM -SHRA OVC015
     FM241700 24008KT P6SM -SHRA BKN020=



000
FTUS46 KMFR 232300 RRA
TAFRBG
TAF
KRBG 232342Z 2400/2424 17010KT P6SM -SHRA SCT025 OVC060
     FM240200 VRB03KT P6SM -RA SCT020 OVC040
     FM240900 18007KT P6SM -RA OVC030
     FM241700 22008KT 5SM -RA BR OVC020=



000
FTUS46 KMFR 232300 RRA
TAFMFR
TAF
KMFR 232342Z 2400/2424 30007KT P6SM -SHRA OVC050
     FM240200 19004KT P6SM -RA OVC040
     FM240600 VRB03KT P6SM VCSH OVC040
     FM241400 23007KT P6SM VCSH OVC040
     FM241800 28008KT P6SM -SHRA OVC050=



000
FTUS46 KMFR 232300 RRA
TAFOTH
TAF
KOTH 232342Z 2400/2424 16012G20KT P6SM -RA BKN025 OVC030
     FM240900 22015G25KT P6SM -SHRA OVC015
     FM241700 24008KT P6SM -SHRA BKN020=



000
FTUS46 KMFR 232300 RRA
TAFLMT
TAF
KLMT 232342Z 2400/2424 24014G20KT P6SM BKN060
     FM240100 24010KT P6SM VCSH OVC060
     FM240600 22015KT P6SM VCSH OVC050
     FM240900 21015KT P6SM -RA OVC050
     FM241800 24015G25KT P6SM VCSH OVC060=



000
FTUS46 KMFR 231700
TAFLMT
TAF
KLMT 231720Z 2318/2418 19008KT P6SM SCT030 BKN060
     FM232100 24011KT P6SM BKN060
     FM240400 22007KT P6SM OVC050
     FM241300 21012G20KT P6SM -RA OVC050=



000
FTUS46 KMFR 231700
TAFOTH
TAF
KOTH 231720Z 2318/2418 16010KT 5SM -RA BR OVC025
     FM232200 16012G20KT P6SM -RA SCT020 OVC040
     FM241400 22012G20KT 4SM -SHRA BR OVC015
     FM241700 24008KT P6SM -SHRA BKN020=



000
FTUS46 KMFR 231700
TAFRBG
TAF
KRBG 231720Z 2318/2418 17010KT P6SM -SHRA SCT025 OVC050
     FM240200 VRB03KT P6SM -RA SCT020 OVC040
     FM241600 24008KT 5SM -RA BR OVC020=



000
FTUS46 KMFR 231700
TAFMFR
TAF
KMFR 231720Z 2318/2418 VRB03KT P6SM BKN070
     FM232200 VRB03KT P6SM VCSH OVC050
     FM240200 VRB03KT P6SM -RA OVC040=



000
FTUS46 KMFR 231100 RRA
TAFMFR
TAF
KMFR 231153Z 2312/2412 15003KT P6SM VCSH SCT015 BKN040
     FM231400 12003KT P6SM SCT040 BKN070
     FM232200 18008KT P6SM -RA SCT020 OVC040=



000
FTUS46 KMFR 231100 RRA
TAFRBG
TAF
KRBG 231153Z 2312/2412 15006KT P6SM -SHRA BKN040 OVC070
     FM232300 17008G16KT P6SM -RA SCT025 BKN040 OVC060
     FM240200 17008KT 5SM -RA BR SCT012 OVC020=



000
FTUS46 KMFR 231100 RRA
TAFLMT
TAF
KLMT 231153Z 2312/2412 19008KT P6SM BKN070
     FM231900 23014G20KT P6SM BKN060
     FM232300 24014G22KT P6SM -SHRA OVC040
     FM240200 24010G18KT P6SM -SHRA BKN025 OVC040=



000
FTUS46 KMFR 231100 RRA
TAFOTH
TAF
KOTH 231153Z 2312/2412 15006KT P6SM -RA SCT025 BKN035 OVC045
      TEMPO 2312/2316 BKN025
     FM231600 17015G25KT P6SM -SHRA SCT020 BKN030
     FM240100 17015G25KT 5SM -RA BR BKN012 OVC025=



000
FTUS46 KMFR 230500
TAFMFR
TAF
KMFR 230528Z 2306/2406 33004KT P6SM VCSH SCT030 BKN050
     FM230900 11003KT P6SM -SHRA SCT015 BKN040
     FM231400 12003KT P6SM SCT040 BKN080
     FM232200 28008KT 6SM -RA BR SCT020 OVC035=



000
FTUS46 KMFR 230500
TAFRBG
TAF
KRBG 230528Z 2306/2406 17003KT P6SM -SHRA SCT025 OVC035
     FM231200 15003KT P6SM BKN020
     FM232000 21006KT P6SM -SHRA OVC025
     FM240000 18003KT 5SM -RA BR SCT015 OVC020=



000
FTUS46 KMFR 230500
TAFOTH
TAF
KOTH 230528Z 2306/2406 18011G17KT P6SM -SHRA SCT028 BKN040 OVC050
     FM230900 19014G22KT P6SM -RA SCT012 OVC025
     FM231300 17012KT P6SM -SHRA SCT010 BKN020
     FM232000 13014G25KT 5SM -RA BR BKN012 OVC025=



000
FTUS46 KMFR 230500
TAFLMT
TAF
KLMT 230528Z 2306/2406 23006KT P6SM BKN035
     FM230800 22006KT 6SM -SHRASN BR BKN035 OVC050
     FM231200 19008KT P6SM SCT020 BKN040
     FM231900 23014G20KT P6SM BKN060
     FM232300 24013KT P6SM -SHRA OVC040=



000
FTUS46 KMFR 230200 AAA
TAFMFR
TAF AMD
KMFR 230229Z 2302/2324 30007KT P6SM SCT060 BKN080
     FM230500 28005KT P6SM -SHRA SCT030 OVC050
     FM231600 VRB03KT P6SM VCSH BKN040 OVC070
     FM232300 29008KT P6SM -SHRA BKN050 BKN090=



000
FTUS46 KMFR 230100 AAA
TAFLMT
TAF AMD
KLMT 230149Z 2302/2324 28014G23KT P6SM -RA SCT030 BKN060
     FM230400 27011KT P6SM VCSH SCT035 BKN050
     FM231000 24005KT P6SM -SHRASN BKN035 OVC050
     FM231600 24008KT P6SM SCT040 OVC070
     FM232000 23014G20KT P6SM BKN060=



000
FTUS46 KMFR 230100 AAA
TAFOTH
TAF AMD
KOTH 230143Z 2302/2324 21012G20KT P6SM -SHRA SCT028 BKN040 OVC060
     FM230900 19013G20KT P6SM -RA SCT012 OVC025
     FM231300 19012KT P6SM -SHRA OVC020=



000
FTUS46 KMFR 222300 RRA
TAFMFR
TAF
KMFR 222344Z 2300/2324 30012G20KT P6SM VCSH SCT060 BKN080
     FM230500 28005KT P6SM -RA SCT030 OVC050
     FM231600 VRB03KT P6SM VCSH BKN040 OVC070
     FM232300 29008KT P6SM -SHRA BKN050 BKN090=



000
FTUS46 KMFR 222300 RRA
TAFLMT
TAF
KLMT 222344Z 2300/2324 28014G23KT P6SM SCT040 BKN060
     FM230400 27011KT P6SM VCSH SCT035 BKN050
     FM231000 24005KT P6SM -SHRASN BKN035 OVC050
     FM231600 24008KT P6SM BKN040 OVC070
     FM232000 23014G20KT P6SM BKN060=



000
FTUS46 KMFR 222300 RRA
TAFOTH
TAF
KOTH 222344Z 2300/2324 23015G25KT P6SM SCT030 BKN050
     FM230500 20012KT P6SM -SHRA SCT020 OVC035
     FM230900 19013G20KT P6SM -RA SCT012 OVC025
     FM231300 19012KT P6SM -SHRA OVC020=



000
FTUS46 KMFR 222300 RRA
TAFRBG
TAF
KRBG 222344Z 2300/2324 23008KT P6SM -SHRA FEW035 OVC050
     FM230300 19003KT P6SM -RA BKN025 OVC035
     FM231300 00000KT P6SM -SHRA OVC025=



000
FTUS46 KMFR 222100 AAA
TAFRBG
TAF AMD
KRBG 222155Z 2222/2318 23008KT P6SM -SHRA FEW035 OVC050
     FM230300 19003KT P6SM -RA BKN025 OVC035
     FM231300 00000KT P6SM -SHRA OVC025=



000
FTUS46 KMFR 222000 AAA
TAFLMT
TAF AMD
KLMT 222014Z 2220/2318 28015G25KT P6SM SCT040 BKN060
     FM222200 29018G27KT P6SM SCT040 BKN060
     FM230400 27011KT P6SM VCSH SCT035 BKN050
     FM231100 24005KT P6SM VCSH BKN035 OVC050=



000
FTUS46 KMFR 221700 RRA
TAFOTH
TAF
KOTH 221744Z 2218/2318 18007KT P6SM -SHRA SCT025 BKN040
     FM222000 23012G20KT P6SM -SHRA SCT025 OVC040
     FM230100 21012G20KT P6SM -RA BKN020 OVC035
     FM230900 19012G20KT P6SM -RA SCT012 OVC020=



000
FTUS46 KMFR 221700 RRA
TAFMFR
TAF
KMFR 221744Z 2218/2318 30007KT P6SM VCSH SCT035 OVC050
     FM222200 30012G20KT P6SM VCSH SCT040 BKN060
     FM230300 28005KT P6SM -SHRA BKN040 OVC050
     FM231500 VRB03KT P6SM VCSH BKN040 OVC070=



000
FTUS46 KMFR 221700 RRA
TAFRBG
TAF
KRBG 221744Z 2218/2318 VRB03KT 5SM -SHRA BR BKN025 OVC035
     FM222000 VRB03KT P6SM VCSH SCT025 OVC035
     FM222200 22006KT P6SM -SHRA BKN040 OVC060
     FM230300 19003KT P6SM -RA BKN025 OVC035
     FM231300 00000KT P6SM -SHRA OVC025=



000
FTUS46 KMFR 221700 RRA
TAFLMT
TAF
KLMT 221744Z 2218/2318 30012G18KT P6SM SCT030 BKN050
     FM222100 30018G25KT P6SM SCT035 BKN060
     FM230400 26011KT P6SM VCSH SCT035 BKN050
     FM231100 24005KT P6SM VCSH BKN035 OVC050=



000
FTUS46 KMFR 221200 AAA
TAFMFR
TAF AMD
KMFR 221252Z 2213/2312 VRB03KT P6SM VCSH FEW025 BKN050
      TEMPO 2213/2217 BKN025
     FM221700 31006KT P6SM SCT025 SCT040
     FM222200 30012G20KT P6SM SCT040 BKN060
     FM230300 24005KT P6SM BKN040 OVC050
     FM231000 15004KT P6SM VCSH BKN040 OVC060=



000
FTUS46 KMFR 221100 AAA
TAFOTH
TAF AMD
KOTH 221156Z 2212/2312 16004KT P6SM SCT025 BKN050
      TEMPO 2212/2216 -SHRA BKN025
     FM221700 22008KT P6SM -SHRA SCT025 BKN035 BKN050
     FM222000 20012G20KT P6SM -RA BKN030 OVC045
     FM230100 21012G20KT P6SM -RA BKN020 OVC035
     FM230900 18012G20KT P6SM -RA SCT012 OVC020=



000
FTUS46 KMFR 221100 RRA
TAFLMT
TAF
KLMT 221146Z 2212/2312 28015G22KT P6SM -SHRASN BKN025 OVC035
     FM221500 30010G18KT P6SM SCT035 BKN050
     FM230400 24008KT P6SM BKN050=



000
FTUS46 KMFR 221100 RRA
TAFOTH
TAF
KOTH 221146Z 2212/2312 16004KT P6SM VCSH SCT025 BKN050
     FM221700 22008KT P6SM -SHRA SCT025 BKN035 BKN050
     FM222000 20012G20KT P6SM -RA BKN030 OVC045
     FM230100 21012G20KT P6SM -RA BKN020 OVC035
     FM230900 18012G20KT P6SM -RA SCT012 OVC020=



000
FTUS46 KMFR 221100 RRA
TAFMFR
TAF
KMFR 221146Z 2212/2312 VRB03KT P6SM VCSH FEW025 BKN050
     FM221700 31006KT P6SM SCT025 SCT040
     FM222200 30012G20KT P6SM SCT040 BKN060
     FM230300 24005KT P6SM BKN040 OVC050
     FM231000 15004KT P6SM VCSH BKN040 OVC060=



000
FTUS46 KMFR 221100 RRA
TAFRBG
TAF
KRBG 221146Z 2212/2312 VRB03KT P6SM VCSH SCT025 OVC050
     FM222200 24006KT P6SM -SHRA SCT040 OVC060
     FM230300 19003KT P6SM -RA BKN025 OVC035=



000
FTUS46 KMFR 220500
TAFOTH
TAF
KOTH 220540Z 2206/2306 18007KT P6SM -SHRA FEW007 SCT015 OVC025
     FM221200 16010KT P6SM VCSH BKN007 BKN015 OVC025
     FM221900 22008KT P6SM VCSH SCT025 BKN035 BKN050
     FM222100 23012G18KT P6SM -RA BKN035 OVC050
     FM230100 21008KT P6SM -RA BKN025 OVC035=



000
FTUS46 KMFR 220500
TAFLMT
TAF
KLMT 220540Z 2206/2306 20011KT P6SM -RA SCT035 OVC050
     FM220900 27015G22KT 5SM -RASN BR FEW007 BKN015 OVC035
     FM221200 28015G22KT 5SM -SHSN SCT015 BKN025 OVC035
     FM221700 30015G25KT P6SM SCT035 BKN050
     FM230400 26008KT P6SM BKN050=



000
FTUS46 KMFR 220500
TAFRBG
TAF
KRBG 220540Z 2206/2306 36006KT 6SM -RA SCT025 OVC040
     FM220800 33004KT 5SM -RA BR BKN025 OVC035
     FM221200 VRB03KT 5SM -SHRA BKN015 OVC025
     FM221500 VRB03KT P6SM VCSH BKN025 BKN040
     FM222200 24006KT P6SM -SHRA SCT040 OVC060
     FM230300 19003KT P6SM -RA BKN025 OVC035=



000
FTUS46 KMFR 220500
TAFMFR
TAF
KMFR 220540Z 2206/2306 32006KT P6SM -RA SCT025 OVC040
     FM220900 31005KT 5SM -RA BR FEW007 BKN015 OVC025
     FM221200 VRB03KT P6SM -SHRA FEW015 BKN025 OVC040
     FM221700 31006KT P6SM SCT025 BKN040
     FM222200 31012G20KT P6SM SCT040 BKN060
     FM230300 34006KT P6SM BKN040 OVC050=



000
FTUS46 KMFR 212300
TAFRBG
TAF
KRBG 212340Z 2200/2224 33006KT P6SM -RA BKN050 OVC080
     FM220200 36006KT P6SM -RA BKN020 OVC040
     FM220800 33004KT 6SM -SHRA BR OVC015
     FM221500 VRB03KT P6SM VCSH BKN020 OVC040
     FM222200 20006KT P6SM -SHRA BKN035 OVC060=



000
FTUS46 KMFR 212300
TAFLMT
TAF
KLMT 212340Z 2200/2224 20018G28KT P6SM -SHRA BKN070
     FM220200 23015G22KT P6SM -RA SCT035 OVC050
     FM221000 27015KT 5SM -SHRASN BR SCT015 OVC035
     FM221700 30015G25KT P6SM SCT035 BKN050=



000
FTUS46 KMFR 212300
TAFMFR
TAF
KMFR 212340Z 2200/2224 32010G17KT P6SM VCSH SCT060 OVC120
     FM220300 32008KT P6SM -RA SCT035 OVC050
     FM220500 32006KT P6SM -RA BKN015 OVC025
     FM221200 VRB03KT P6SM -SHRA BKN025 OVC040
     FM221700 31006KT P6SM SCT025 BKN040=



000
FTUS46 KMFR 212300
TAFOTH
TAF
KOTH 212340Z 2200/2224 27006KT 4SM -RA BR BKN015 BKN035 OVC050
     FM220600 24005KT 6SM -SHRA BR OVC015
     FM221200 16007KT P6SM -SHRA BKN015 OVC025
     FM221900 22012G18KT P6SM -RA BKN025 OVC050=



000
FTUS46 KMFR 212200 AAA
TAFOTH
TAF AMD
KOTH 212250Z 2123/2218 18006KT 6SM RA BKN009 BKN035 OVC050
     FM220100 31007KT 3SM -RA BR BKN015 OVC025
     FM220600 28005KT 6SM -SHRA BR OVC015=



000
FTUS46 KMFR 211700 RRA
TAFRBG
TAF
KRBG 211743Z 2118/2218 VRB02KT P6SM SCT050 BKN080
     FM212100 32005KT P6SM -RA SCT025 OVC040
     FM220200 36006KT P6SM -RA BKN020 OVC040
     FM220600 33004KT 6SM -RA BR OVC015
     FM221500 VRB03KT P6SM VCSH BKN020 OVC040=



000
FTUS46 KMFR 211700 RRA
TAFMFR
TAF
KMFR 211743Z 2118/2218 VRB03KT P6SM SCT090 OVC120
     FM212100 29008KT P6SM VCSH SCT050 OVC080
     FM220100 30008KT P6SM -RA SCT035 OVC050
     FM220400 31006KT P6SM -RA BKN015 OVC025
     FM221700 VRB03KT P6SM SCT025 BKN040=



000
FTUS46 KMFR 211700 RRA
TAFOTH
TAF
KOTH 211743Z 2118/2218 15005KT P6SM FEW080 BKN120
     FM212000 27012KT P6SM VCSH SCT050 OVC080
     FM212200 27009KT 5SM -RA BR SCT015 OVC035
     FM220100 31007KT 3SM -RA BR BKN015 OVC025
     FM220600 28005KT 6SM -SHRA BR OVC015=



000
FTUS46 KMFR 211700 RRA
TAFLMT
TAF
KLMT 211743Z 2118/2218 18005KT P6SM SCT080 BKN120
     FM212000 20015G25KT P6SM BKN080 BKN120
     FM220400 23012G20KT P6SM -RA SCT035 OVC050
     FM221000 27015KT 5SM -RASN BR SCT015 OVC035=



000
FTUS46 KMFR 211100
TAFOTH
TAF
KOTH 211138Z 2112/2212 15005KT P6SM FEW002 BKN120
     FM211500 15005KT P6SM BKN080 BKN120
     FM211900 26009KT P6SM -RA BKN050 OVC080
     FM212200 27009KT 5SM -RA BR SCT007 OVC035
     FM220100 35007KT 3SM -RA BR BKN005 OVC025
     FM220700 26010KT 6SM -RA BR OVC008=



000
FTUS46 KMFR 211100
TAFMFR
TAF
KMFR 211138Z 2112/2212 VRB03KT P6SM BKN120
     FM212100 29008KT P6SM SCT050 OVC080
     FM220100 30008KT P6SM -SHRA SCT035 OVC050
     FM220500 31010KT P6SM -RA BKN015 OVC025=



000
FTUS46 KMFR 211100
TAFLMT
TAF
KLMT 211138Z 2112/2212 VRB03KT P6SM BKN150
     FM211800 18007KT P6SM BKN120
     FM212000 20015G25KT P6SM BKN080 BKN120
     FM220400 23012G20KT P6SM -RA SCT035 OVC050
     FM221000 27015KT 5SM -RASN BR SCT015 OVC035=



000
FTUS46 KMFR 211100
TAFRBG
TAF
KRBG 211138Z 2112/2212 00000KT P6SM FEW002 BKN120
     FM211600 VRB02KT P6SM SCT050 BKN080
     FM212100 32005KT P6SM -RA SCT025 OVC040
     FM220200 36006KT P6SM -RA BKN020 OVC040
     FM220600 33004KT 6SM -RA BR OVC015=



    US Dept of Commerce
    National Oceanic and Atmospheric Administration
    National Weather Service
    1325 East West Highway
    Silver Spring, MD 20910
    Page Author: NWS Internet Services Team
Disclaimer
Information Quality
Credits
Glossary
Privacy Policy
Freedom of Information Act (FOIA)
About Us
Career Opportunities